Weather History for Clarksdale Fletcher Field Air, MS

Change the Weather History Date:

Tuesday, February 4, 2014

  Actual Average (KMEM) Record (KMEM)
Temperature  
Mean Temperature 34 °F 43 °F  
Max Temperature 35 °F 52 °F 76 °F (2008)
Min Temperature 32 °F 34 °F 4 °F (1996)
Degree Days  
Heating Degree Days 32 22  
Month to date heating degree days 89  
Since 1 July heating degree days 1991  
Cooling Degree Days 0 0  
Month to date cooling degree days 0  
Year to date cooling degree days 1  
Moisture  
Dew Point 32 °F    
Average Humidity 100    
Maximum Humidity 100    
Minimum Humidity 100    
Precipitation  
Precipitation 1.04 in 0.15 in 2.88 in (2014)
Month to date precipitation 0.61  
Year to date precipitation 4.59  
Snow  
Snow 0.00 in 0.10 in 0.30 in (1989)
Month to date snowfall 0.3  
Since 1 July snowfall 2.4  
Snow Depth -    
Sea Level Pressure  
Sea Level Pressure 30.02 in    
Wind  
Wind Speed 9 mph (North)    
Max Wind Speed 22 mph    
Max Gust Speed 18 mph    
Visibility 4 miles    
Events      
T = Trace of Precipitation, MM = Missing Value Source: NWS Daily Summary

Daily Weather History Graph

Daily Weather History Graph

Search for Another Location

Airport:

Trip Planner

Search our weather history database for the weather conditions in past years. The results will help you decide how hot, cold, wet, or windy it might be!

Date:

Astronomy

Feb. 04, 2014 Rise Set
Actual Time 6:57 AM CST 5:35 PM CST
Civil Twilight 6:31 AM CST 6:01 PM CST
Nautical Twilight 6:01 AM CST 6:31 PM CST
Astronomical Twilight 5:31 AM CST 7:00 PM CST
Moon 9:51 AM CST (2/4) 11:11 PM CST (2/4)
Length of Visible Light 11h 30m
Length of Day
10h 37m
Waxing Crescent, 29% of the Moon is Illuminated
Feb 4
Waxing Crescent
Feb 6
First Quarter
Feb 14
Full
Feb 22
Last Quarter
Mar 1
New

Hourly Weather History & Observations

Time (CST) Temp. Windchill Dew Point Humidity Pressure Visibility Wind Dir Wind Speed Gust Speed Precip Events Conditions
12:15 AM 32.0 °F 23.6 °F 32.0 °F 100% 30.19 in 2.5 mi NE 10.4 mph - N/A   Overcast
12:35 AM 32.0 °F 22.5 °F 32.0 °F 100% 30.18 in 2.0 mi NE 12.7 mph 16.1 mph N/A   Overcast
12:55 AM 32.0 °F 23.0 °F 32.0 °F 100% 30.17 in 2.0 mi NE 11.5 mph - N/A   Overcast
1:15 AM 32.0 °F 23.6 °F 32.0 °F 100% 30.17 in 2.5 mi NNE 10.4 mph - N/A   Overcast
1:35 AM 32.0 °F 23.6 °F 32.0 °F 100% 30.17 in 2.5 mi NNE 10.4 mph - N/A   Overcast
1:55 AM 32.0 °F 23.0 °F 32.0 °F 100% 30.16 in 3.0 mi NE 11.5 mph - N/A   Overcast
2:15 AM 32.0 °F 24.2 °F 32.0 °F 100% 30.17 in 4.0 mi NE 9.2 mph - N/A   Overcast
2:35 AM 32.0 °F 24.8 °F 32.0 °F 100% 30.19 in 4.0 mi NNE 8.1 mph - N/A   Overcast
2:55 AM 32.0 °F 23.0 °F 32.0 °F 100% 30.17 in 3.0 mi NE 11.5 mph - N/A   Overcast
3:15 AM 32.0 °F 23.6 °F 32.0 °F 100% 30.17 in 3.0 mi NE 10.4 mph - N/A   Overcast
3:35 AM 32.0 °F 20.8 °F 32.0 °F 100% 30.12 in 3.0 mi ENE 17.3 mph - N/A   Overcast
3:55 AM 32.0 °F 28.7 °F 32.0 °F 100% 30.16 in 4.0 mi ENE 3.5 mph - N/A   Overcast
4:15 AM 32.0 °F - 32.0 °F 100% 30.17 in 4.0 mi Calm Calm - N/A   Overcast
4:35 AM 32.0 °F 27.5 °F 32.0 °F 100% 30.14 in 3.0 mi NE 4.6 mph - N/A   Overcast
4:55 AM 32.0 °F 24.8 °F 32.0 °F 100% 30.15 in 3.0 mi NE 8.1 mph - N/A   Overcast
5:15 AM 32.0 °F 26.4 °F 32.0 °F 100% 30.15 in 3.0 mi NNE 5.8 mph - N/A   Overcast
5:35 AM 32.0 °F 24.8 °F 32.0 °F 100% 30.16 in 3.0 mi North 8.1 mph - N/A   Overcast
5:55 AM 32.0 °F 23.6 °F 32.0 °F 100% 30.15 in 3.0 mi NE 10.4 mph - N/A   Overcast
6:15 AM 32.0 °F 24.2 °F 32.0 °F 100% 30.14 in 3.0 mi NE 9.2 mph - N/A   Overcast
6:35 AM 32.0 °F 21.6 °F 32.0 °F 100% 30.11 in 2.5 mi ENE 15.0 mph - N/A   Overcast
6:55 AM 32.0 °F 22.1 °F 32.0 °F 100% 30.08 in 2.5 mi ENE 13.8 mph 18.4 mph N/A   Overcast
7:15 AM 32.0 °F 22.5 °F 32.0 °F 100% 30.08 in 2.5 mi ENE 12.7 mph - N/A   Overcast
7:35 AM 32.0 °F 26.4 °F 32.0 °F 100% 30.08 in 1.5 mi ENE 5.8 mph - N/A   Overcast
7:55 AM 32.0 °F 19.5 °F 32.0 °F 100% 30.01 in 1.5 mi East 21.9 mph - N/A   Overcast
8:15 AM 32.0 °F 22.5 °F 32.0 °F 100% 30.02 in 1.8 mi East 12.7 mph - N/A   Overcast
8:35 AM 32.0 °F 27.5 °F 32.0 °F 100% 30.11 in 1.5 mi ENE 4.6 mph 16.1 mph N/A   Overcast
8:55 AM 32.0 °F - 32.0 °F 100% 30.07 in 0.5 mi Calm Calm - N/A   Overcast
9:15 AM 32.0 °F 25.6 °F 32.0 °F 100% 30.05 in 0.5 mi NE 6.9 mph - N/A   Mostly Cloudy
9:35 AM 32.0 °F - 32.0 °F 100% 30.06 in 0.8 mi Calm Calm - 0.01 in   Mostly Cloudy
9:55 AM 33.8 °F 27.7 °F 33.8 °F 100% 30.07 in 1.8 mi North 6.9 mph - 0.03 in   Mostly Cloudy
10:15 AM 32.0 °F 24.2 °F 32.0 °F 100% 30.06 in 0.5 mi NNW 9.2 mph - 0.02 in   Overcast
10:35 AM 32.0 °F 26.4 °F 32.0 °F 100% 30.08 in 1.2 mi NNW 5.8 mph - 0.04 in   Overcast
10:55 AM 32.0 °F 22.1 °F 32.0 °F 100% 30.05 in 0.5 mi North 13.8 mph - 0.04 in   Overcast
11:15 AM 32.0 °F 23.6 °F 32.0 °F 100% 30.02 in 0.8 mi NNE 10.4 mph - N/A   Overcast
11:35 AM 32.0 °F 20.8 °F 32.0 °F 100% 29.97 in 2.0 mi NE 17.3 mph - N/A   Overcast
11:55 AM 32.0 °F 24.8 °F 32.0 °F 100% 29.97 in 1.8 mi NNE 8.1 mph - N/A   Overcast
12:15 PM 32.0 °F 23.6 °F 32.0 °F 100% 29.95 in 3.0 mi NNE 10.4 mph - N/A   Overcast
12:35 PM 32.0 °F 24.8 °F 32.0 °F 100% 29.93 in - NE 8.1 mph - N/A   Overcast
12:55 PM 32.0 °F 23.6 °F 32.0 °F 100% 29.89 in - NE 10.4 mph - N/A   Overcast
1:15 PM 32.0 °F 24.8 °F 32.0 °F 100% 29.89 in 1.8 mi North 8.1 mph - N/A   Overcast
1:35 PM 32.0 °F 23.6 °F 32.0 °F 100% 29.92 in 1.0 mi NW 10.4 mph - 0.04 in   Overcast
1:55 PM 32.0 °F 21.6 °F 32.0 °F 100% 29.92 in 0.8 mi NW 15.0 mph - 0.11 in   Overcast
2:15 PM 32.0 °F 22.5 °F 32.0 °F 100% 29.90 in 0.5 mi North 12.7 mph - 0.11 in   Overcast
2:35 PM 32.0 °F 24.8 °F 32.0 °F 100% 29.94 in 1.0 mi NNW 8.1 mph - 0.19 in   Overcast
2:55 PM 33.8 °F 25.8 °F 33.8 °F 100% 29.90 in 2.0 mi North 10.4 mph - 0.22 in   Overcast
3:15 PM 32.0 °F 25.6 °F 32.0 °F 100% 29.90 in 1.2 mi North 6.9 mph - 0.03 in   Overcast
3:35 PM 32.0 °F 24.2 °F 32.0 °F 100% 29.89 in 0.5 mi ENE 9.2 mph - 0.15 in   Overcast
3:55 PM 33.8 °F - 33.8 °F 100% 29.89 in 0.8 mi Calm Calm - 0.29 in   Overcast
4:15 PM 33.8 °F - 33.8 °F 100% 29.86 in 1.5 mi Calm Calm - 0.04 in   Overcast
4:35 PM 33.8 °F - 33.8 °F 100% 29.87 in - Calm Calm - 0.10 in   Overcast
4:55 PM 35.6 °F - 35.6 °F 100% 29.87 in 2.0 mi Calm Calm - 0.15 in   Overcast
5:15 PM 33.8 °F - 33.8 °F 100% 29.87 in 1.5 mi Calm Calm - 0.09 in   Overcast
5:35 PM 33.8 °F - 33.8 °F 100% 29.89 in 2.0 mi Calm Calm - 0.16 in   Overcast
6:15 PM 33.8 °F - 33.8 °F 100% 29.87 in 3.0 mi Calm Calm - 0.01 in   Mostly Cloudy
6:35 PM 33.8 °F - 33.8 °F 100% 29.87 in 3.0 mi Calm Calm - 0.02 in   Overcast
6:55 PM 33.8 °F 27.0 °F 33.8 °F 100% 29.87 in 5.0 mi NW 8.1 mph - 0.03 in   Overcast
7:15 PM 33.8 °F - 33.8 °F 100% 29.92 in 10.0 mi Calm Calm - N/A   Overcast
7:35 PM 33.8 °F 25.8 °F 33.8 °F 100% 29.92 in 10.0 mi WNW 10.4 mph - N/A   Overcast
7:55 PM 33.8 °F 27.0 °F 33.8 °F 100% 29.94 in 10.0 mi West 8.1 mph - N/A   Overcast
8:15 PM 33.8 °F 27.0 °F 33.8 °F 100% 29.94 in 10.0 mi WNW 8.1 mph - N/A   Overcast
8:35 PM 33.8 °F 25.3 °F 33.8 °F 100% 29.94 in 10.0 mi WNW 11.5 mph - N/A   Overcast
8:55 PM 33.8 °F 27.0 °F 33.8 °F 100% 29.95 in 10.0 mi WNW 8.1 mph - N/A   Overcast
9:15 PM 32.0 °F 23.6 °F 32.0 °F 100% 29.96 in 10.0 mi WNW 10.4 mph - N/A   Overcast
9:35 PM 32.0 °F 23.0 °F 32.0 °F 100% 29.97 in 10.0 mi WNW 11.5 mph - N/A   Overcast
9:55 PM 32.0 °F 24.2 °F 32.0 °F 100% 29.97 in 10.0 mi WNW 9.2 mph - N/A   Overcast
10:15 PM 32.0 °F 24.8 °F 32.0 °F 100% 29.98 in 10.0 mi West 8.1 mph - N/A   Overcast
10:35 PM 32.0 °F 22.5 °F 32.0 °F 100% 29.99 in 10.0 mi WNW 12.7 mph - N/A   Overcast
10:55 PM 32.0 °F 24.2 °F 32.0 °F 100% 30.00 in 10.0 mi West 9.2 mph - 0.01 in   Overcast
11:15 PM 32.0 °F 22.1 °F 32.0 °F 100% 30.01 in 10.0 mi West 13.8 mph - N/A   Overcast
11:35 PM 32.0 °F 26.4 °F 32.0 °F 100% 30.01 in 10.0 mi West 5.8 mph - N/A   Overcast
11:55 PM 32.0 °F 22.5 °F 32.0 °F 100% 30.02 in 10.0 mi West 12.7 mph - N/A   Overcast